Time;durP1;ratioP1;P1;durP2;ratioP2;P2;SDS_P1;SDS_P2;PMS_P1;PMS_P2;Temp;Humidity;BMP_temperature;BMP_pressure;BME280_temperature;BME280_humidity;BME280_pressure;Samples;Min_cycle;Max_cycle;Signal;HPM_P1;HPM_P2
2023/09/08 00:01:57;;;;;;;11.85;7.47;;;563.70;2432.00;;;;;;4935605;29;20104;-74
2023/09/08 00:04:22;;;;;;;14.43;7.95;;;563.60;2432.00;;;;;;4935622;29;20478;-73
2023/09/08 00:06:48;;;;;;;16.05;7.85;;;563.60;2432.00;;;;;;4935640;29;20019;-74
2023/09/08 00:09:14;;;;;;;11.88;7.63;;;563.50;2432.00;;;;;;4935563;29;20024;-73
2023/09/08 00:11:40;;;;;;;11.75;7.97;;;563.40;2432.00;;;;;;4935802;29;20396;-73
2023/09/08 00:14:05;;;;;;;16.45;8.50;;;563.40;2432.00;;;;;;4935492;29;20258;-73
2023/09/08 00:16:31;;;;;;;13.15;8.52;;;563.30;2432.00;;;;;;4935571;29;20480;-73
2023/09/08 00:19:00;;;;;;;14.57;8.32;;;563.30;2432.00;;;;;;4935425;29;20039;-73
2023/09/08 00:21:26;;;;;;;15.00;8.43;;;563.20;2432.00;;;;;;4935568;29;20028;-74
2023/09/08 00:23:53;;;;;;;13.90;8.35;;;538.50;2406.40;;;;;;4935280;29;20059;-73
2023/09/08 00:26:19;;;;;;;12.55;8.50;;;538.40;2406.40;;;;;;4935448;29;20024;-72
2023/09/08 00:28:45;;;;;;;13.40;8.98;;;538.20;2406.40;;;;;;4938756;29;20038;-73
2023/09/08 00:31:11;;;;;;;16.50;8.77;;;538.20;2406.40;;;;;;4939089;29;20023;-73
2023/09/08 00:33:37;;;;;;;17.52;9.52;;;538.30;2406.40;;;;;;4938967;29;20032;-74
2023/09/08 00:36:03;;;;;;;18.17;9.32;;;;;;;;;;4938786;29;20388;-73
2023/09/08 00:38:29;;;;;;;16.88;8.98;;;538.00;2406.40;;;;;;4937650;29;20039;-73
2023/09/08 00:40:55;;;;;;;13.55;9.00;;;537.90;2406.40;;;;;;4921805;29;20024;-73
2023/09/08 00:43:21;;;;;;;17.20;9.05;;;537.70;2406.40;;;;;;4938717;29;20023;-74
2023/09/08 00:45:48;;;;;;;20.98;11.18;;;512.80;2380.80;;;;;;4938769;29;20102;-73
2023/09/08 00:48:14;;;;;;;15.48;9.55;;;512.60;2380.80;;;;;;4938699;29;20031;-73
2023/09/08 00:50:40;;;;;;;18.25;8.13;;;512.30;2380.80;;;;;;4938845;29;20032;-73
2023/09/08 00:53:06;;;;;;;19.80;9.73;;;512.30;2380.80;;;;;;4921559;29;20440;-73
2023/09/08 00:55:32;;;;;;;16.48;10.63;;;512.10;2380.80;;;;;;4938682;29;20028;-73
2023/09/08 00:57:59;;;;;;;14.40;10.52;;;487.30;2380.80;;;;;;4938495;29;20495;-73
2023/09/08 01:00:25;;;;;;;14.80;10.40;;;487.10;2380.80;;;;;;4938759;29;20366;-73
2023/09/08 01:02:52;;;;;;;20.85;10.80;;;487.10;2380.80;;;;;;4938752;29;20400;-73
2023/09/08 01:05:18;;;;;;;11.15;9.20;;;487.10;2380.80;;;;;;4937374;29;20032;-73
2023/09/08 01:07:44;;;;;;;20.27;10.45;;;487.30;2380.80;;;;;;4937301;29;20031;-73
2023/09/08 01:10:11;;;;;;;18.13;10.00;;;512.00;2380.80;;;;;;4938485;29;20163;-72
2023/09/08 01:12:37;;;;;;;23.00;10.50;;;487.30;2380.80;;;;;;4938260;29;20488;-73
2023/09/08 01:15:07;;;;;;;20.08;10.60;;;487.20;2380.80;;;;;;4938244;29;20030;-72
2023/09/08 01:17:34;;;;;;;22.45;10.30;;;487.10;2380.80;;;;;;4938350;29;20096;-72
2023/09/08 01:20:17;;;;;;;19.58;10.68;;;487.30;2380.80;;;;;;4938033;29;20079;-73
2023/09/08 01:23:13;;;;;;;17.63;10.43;;;512.00;2380.80;;;;;;4938044;29;20087;-73
2023/09/08 01:25:46;;;;;;;19.42;10.90;;;487.30;2380.80;;;;;;4938018;29;20500;-72
2023/09/08 01:28:12;;;;;;;14.05;10.10;;;487.30;2380.80;;;;;;4938029;29;20055;-72
2023/09/08 01:30:39;;;;;;;12.77;10.30;;;487.20;2380.80;;;;;;4938077;29;20483;-72
2023/09/08 01:33:06;;;;;;;18.15;10.60;;;487.20;2380.80;;;;;;4937795;29;20024;-72
2023/09/08 01:35:32;;;;;;;20.70;10.05;;;487.30;2380.80;;;;;;4937849;29;20075;-72
2023/09/08 01:37:58;;;;;;;18.88;11.60;;;487.30;2380.80;;;;;;4937348;29;20035;-72
2023/09/08 01:40:24;;;;;;;14.65;11.30;;;512.00;2380.80;;;;;;4937858;29;20038;-73
2023/09/08 01:42:50;;;;;;;20.15;11.60;;;487.30;2380.80;;;;;;4938102;29;20110;-73
2023/09/08 01:45:15;;;;;;;20.52;11.27;;;512.10;2380.80;;;;;;4937786;29;20039;-72
2023/09/08 01:47:41;;;;;;;17.17;10.07;;;512.10;2380.80;;;;;;4937897;29;20024;-73
2023/09/08 01:50:07;;;;;;;21.13;10.95;;;512.20;2380.80;;;;;;4937854;29;20556;-73
2023/09/08 01:52:33;;;;;;;20.25;12.65;;;512.20;2380.80;;;;;;4937739;29;20027;-73
2023/09/08 01:54:58;;;;;;;23.48;10.70;;;512.00;2380.80;;;;;;4937601;29;20036;-72
2023/09/08 01:57:24;;;;;;;21.30;11.38;;;487.20;2380.80;;;;;;4937575;29;20449;-72
2023/09/08 01:59:50;;;;;;;17.70;11.07;;;487.30;2380.80;;;;;;4937359;29;20098;-73
2023/09/08 02:02:15;;;;;;;22.17;11.68;;;487.20;2380.80;;;;;;4937288;29;20034;-72
2023/09/08 02:04:41;;;;;;;20.60;11.57;;;487.20;2380.80;;;;;;4937399;29;20035;-72
2023/09/08 02:07:07;;;;;;;20.02;11.73;;;487.20;2380.80;;;;;;4937284;29;20027;-73
2023/09/08 02:09:34;;;;;;;15.15;11.15;;;487.10;2380.80;;;;;;4937225;29;20528;-72
2023/09/08 02:12:01;;;;;;;20.85;12.02;;;487.20;2380.80;;;;;;4937262;29;20015;-72
2023/09/08 02:14:27;;;;;;;18.33;12.10;;;487.30;2380.80;;;;;;4937318;29;20051;-72
2023/09/08 02:16:54;;;;;;;19.17;11.43;;;487.20;2380.80;;;;;;4937250;29;20104;-73
2023/09/08 02:19:19;;;;;;;19.10;11.73;;;487.20;2380.80;;;;;;4937271;29;20111;-72
2023/09/08 02:21:45;;;;;;;19.20;11.30;;;487.20;2380.80;;;;;;4937202;29;20035;-73
2023/09/08 02:24:11;;;;;;;17.23;11.98;;;487.20;2380.80;;;;;;4936796;29;20052;-73
2023/09/08 02:26:38;;;;;;;18.00;11.07;;;487.20;2380.80;;;;;;4937134;29;20036;-72
2023/09/08 02:29:04;;;;;;;20.90;11.13;;;487.20;2380.80;;;;;;4937030;29;20028;-72
2023/09/08 02:31:30;;;;;;;23.02;12.07;;;487.10;2380.80;;;;;;4935689;29;20079;-73
2023/09/08 02:33:56;;;;;;;18.88;10.90;;;487.00;2380.80;;;;;;4936655;29;20028;-72
2023/09/08 02:36:25;;;;;;;19.27;11.55;;;486.90;2380.80;;;;;;4935587;29;20032;-72
2023/09/08 02:38:57;;;;;;;19.05;11.18;;;486.90;2380.80;;;;;;4936538;29;20082;-72
2023/09/08 02:41:23;;;;;;;20.05;11.32;;;487.00;2380.80;;;;;;4936689;29;20071;-73
2023/09/08 02:43:49;;;;;;;21.95;11.82;;;487.10;2380.80;;;;;;4936933;29;20031;-73
2023/09/08 02:46:15;;;;;;;20.33;12.68;;;487.00;2380.80;;;;;;4936811;29;20035;-73
2023/09/08 02:48:41;;;;;;;20.85;13.18;;;487.00;2380.80;;;;;;4936649;29;20032;-73
2023/09/08 02:51:07;;;;;;;15.65;11.10;;;487.00;2380.80;;;;;;4935936;29;20357;-73
2023/09/08 02:53:33;;;;;;;19.70;13.27;;;487.00;2380.80;;;;;;4936554;29;20116;-73
2023/09/08 02:55:59;;;;;;;19.17;12.80;;;487.00;2380.80;;;;;;4936629;29;20027;-72
2023/09/08 02:58:26;;;;;;;19.70;12.15;;;486.90;2380.80;;;;;;4936356;29;20035;-72
2023/09/08 03:00:52;;;;;;;23.50;12.35;;;;;;;;;;4936650;29;20031;-73
2023/09/08 03:03:19;;;;;;;17.50;10.75;;;486.80;2380.80;;;;;;4936749;29;20027;-73
2023/09/08 03:05:44;;;;;;;23.17;11.98;;;486.70;2380.80;;;;;;4936478;29;20027;-73
2023/09/08 03:08:10;;;;;;;21.10;11.45;;;486.60;2380.80;;;;;;4936545;29;20504;-73
2023/09/08 03:10:36;;;;;;;24.85;12.32;;;486.60;2380.80;;;;;;4936309;29;20028;-73
2023/09/08 03:13:02;;;;;;;17.88;11.60;;;486.50;2380.80;;;;;;4936553;29;20126;-72
2023/09/08 03:15:28;;;;;;;26.00;12.27;;;486.60;2380.80;;;;;;4936394;29;20028;-73
2023/09/08 03:17:55;;;;;;;21.75;12.38;;;486.60;2380.80;;;;;;4935987;29;20078;-73
2023/09/08 03:20:21;;;;;;;16.33;11.13;;;486.60;2380.80;;;;;;4936245;29;20111;-73
2023/09/08 03:22:47;;;;;;;21.58;12.07;;;486.50;2380.80;;;;;;4934718;29;20535;-72
2023/09/08 03:25:15;;;;;;;20.13;12.45;;;486.50;2380.80;;;;;;4935789;29;20060;-73
2023/09/08 03:27:41;;;;;;;21.92;10.80;;;486.50;2380.80;;;;;;4935946;29;20027;-73
2023/09/08 03:30:07;;;;;;;19.25;11.77;;;486.50;2380.80;;;;;;4936014;29;20028;-72
2023/09/08 03:32:33;;;;;;;23.58;11.43;;;486.50;2380.80;;;;;;4935908;29;20031;-72
2023/09/08 03:34:59;;;;;;;19.85;11.45;;;486.50;2380.80;;;;;;4936075;29;20024;-72
2023/09/08 03:37:26;;;;;;;18.98;11.63;;;486.50;2380.80;;;;;;4935970;29;20028;-72
2023/09/08 03:39:52;;;;;;;20.77;11.52;;;486.50;2380.80;;;;;;4935830;29;20370;-73
2023/09/08 03:42:18;;;;;;;20.23;11.55;;;486.40;2380.80;;;;;;4935935;29;20079;-73
2023/09/08 03:44:44;;;;;;;20.05;11.27;;;461.70;2380.80;;;;;;4935734;29;20023;-74
2023/09/08 03:47:10;;;;;;;19.38;11.07;;;461.70;2380.80;;;;;;4935939;29;20020;-73
2023/09/08 03:49:35;;;;;;;20.20;12.25;;;461.50;2380.80;;;;;;4935838;29;20485;-73
2023/09/08 03:52:01;;;;;;;16.55;11.38;;;461.60;2380.80;;;;;;4935937;29;20020;-73
2023/09/08 03:54:27;;;;;;;17.00;10.93;;;461.60;2380.80;;;;;;4935970;29;20047;-73
2023/09/08 03:56:53;;;;;;;17.42;11.52;;;461.70;2380.80;;;;;;4935857;29;20023;-73
2023/09/08 03:59:18;;;;;;;18.45;11.38;;;461.70;2380.80;;;;;;4935669;29;20032;-72
2023/09/08 04:01:44;;;;;;;22.08;12.05;;;461.60;2380.80;;;;;;4937737;29;20110;-71
2023/09/08 04:04:10;;;;;;;23.45;11.88;;;461.60;2380.80;;;;;;4939445;29;20031;-72
2023/09/08 04:06:35;;;;;;;26.50;12.75;;;461.70;2380.80;;;;;;4939704;29;20588;-73
2023/09/08 04:09:01;;;;;;;23.27;11.77;;;461.70;2380.80;;;;;;4939622;29;20023;-73
2023/09/08 04:11:27;;;;;;;21.65;11.52;;;461.50;2380.80;;;;;;4939535;29;20112;-74
2023/09/08 04:13:52;;;;;;;19.15;11.95;;;461.60;2380.80;;;;;;4939427;29;20028;-73
2023/09/08 04:16:18;;;;;;;17.58;11.60;;;461.50;2380.80;;;;;;4939374;29;20468;-72
2023/09/08 04:18:44;;;;;;;26.95;11.48;;;461.50;2380.80;;;;;;4938977;29;20079;-72
2023/09/08 04:21:10;;;;;;;29.90;13.00;;;461.50;2380.80;;;;;;4939381;29;20440;-73
2023/09/08 04:23:36;;;;;;;24.70;12.40;;;461.50;2380.80;;;;;;4939205;29;20430;-72
2023/09/08 04:26:02;;;;;;;25.45;10.85;;;461.50;2380.80;;;;;;4939091;29;20050;-73
2023/09/08 04:28:28;;;;;;;20.92;11.45;;;461.50;2380.80;;;;;;4939269;29;20032;-72
2023/09/08 04:30:53;;;;;;;22.13;11.75;;;461.40;2380.80;;;;;;4939205;29;20406;-73
2023/09/08 04:33:19;;;;;;;28.23;11.32;;;461.40;2380.80;;;;;;4939088;29;20023;-73
2023/09/08 04:35:45;;;;;;;23.65;12.30;;;461.40;2380.80;;;;;;4939039;29;20111;-73
2023/09/08 04:38:11;;;;;;;22.42;11.90;;;461.50;2380.80;;;;;;4938930;29;20027;-73
2023/09/08 04:40:40;;;;;;;15.57;11.02;;;461.60;2380.80;;;;;;4938810;29;20031;-73
2023/09/08 04:43:05;;;;;;;18.52;10.57;;;461.70;2380.80;;;;;;4939104;29;20488;-73
2023/09/08 04:45:31;;;;;;;22.15;12.02;;;486.40;2380.80;;;;;;4939033;29;20111;-73
2023/09/08 04:47:57;;;;;;;20.80;12.02;;;486.50;2380.80;;;;;;4938791;29;20083;-73
2023/09/08 04:50:22;;;;;;;25.65;11.85;;;486.50;2380.80;;;;;;4938693;29;20038;-73
2023/09/08 04:52:48;;;;;;;21.48;11.05;;;486.60;2380.80;;;;;;4938805;29;20447;-73
2023/09/08 04:55:14;;;;;;;20.98;10.20;;;486.60;2380.80;;;;;;4942240;29;20539;-73
2023/09/08 04:57:40;;;;;;;18.25;9.93;;;486.60;2380.80;;;;;;4945220;29;20031;-72
2023/09/08 05:00:06;;;;;;;22.48;11.15;;;486.80;2380.80;;;;;;4949549;29;20173;-71
2023/09/08 05:02:32;;;;;;;23.20;11.10;;;486.80;2380.80;;;;;;4951787;29;20035;-71
2023/09/08 05:04:59;;;;;;;17.73;10.25;;;486.80;2380.80;;;;;;4943317;29;20027;-72
2023/09/08 05:07:25;;;;;;;35.42;14.00;;;486.90;2380.80;;;;;;4953534;29;20023;-72
2023/09/08 05:09:51;;;;;;;27.73;13.43;;;487.00;2380.80;;;;;;4952422;29;20070;-72
2023/09/08 05:12:17;;;;;;;25.88;10.50;;;487.00;2380.80;;;;;;4949540;29;20544;-73
2023/09/08 05:14:42;;;;;;;21.42;10.30;;;487.10;2380.80;;;;;;4954817;29;20023;-71
2023/09/08 05:17:08;;;;;;;19.55;9.75;;;487.20;2380.80;;;;;;4946132;29;20023;-72
2023/09/08 05:19:34;;;;;;;19.77;9.52;;;487.30;2380.80;;;;;;4951065;29;20073;-71
2023/09/08 05:22:00;;;;;;;18.30;9.10;;;487.30;2380.80;;;;;;4952368;29;20019;-71
2023/09/08 05:24:26;;;;;;;19.50;9.90;;;487.30;2380.80;;;;;;4953523;29;20047;-72
2023/09/08 05:26:53;;;;;;;15.50;8.60;;;512.00;2380.80;;;;;;4947455;29;20020;-71
2023/09/08 05:29:18;;;;;;;19.05;8.77;;;487.30;2380.80;;;;;;4949290;29;20078;-72
2023/09/08 05:31:45;;;;;;;14.80;8.57;;;512.20;2380.80;;;;;;4954138;29;20023;-73
2023/09/08 05:34:10;;;;;;;13.95;8.60;;;512.20;2380.80;;;;;;4930184;29;20089;-72
2023/09/08 05:36:38;;;;;;;14.05;8.00;;;512.40;2380.80;;;;;;4952262;29;20022;-73
2023/09/08 05:39:05;;;;;;;13.52;7.30;;;512.50;2380.80;;;;;;4950798;29;20472;-74
2023/09/08 05:41:31;;;;;;;20.77;8.95;;;512.50;2380.80;;;;;;4955955;29;20019;-71
2023/09/08 05:43:57;;;;;;;12.32;7.75;;;512.70;2380.80;;;;;;4949942;29;20051;-72
2023/09/08 05:46:23;;;;;;;14.85;7.75;;;512.80;2380.80;;;;;;4949766;29;20024;-72
2023/09/08 05:48:49;;;;;;;16.42;7.22;;;512.90;2380.80;;;;;;4950671;29;20114;-73
2023/09/08 05:51:15;;;;;;;12.98;7.68;;;537.60;2406.40;;;;;;4947470;28;20030;-73
2023/09/08 05:53:41;;;;;;;14.63;8.30;;;537.80;2406.40;;;;;;4939473;29;20031;-71
2023/09/08 05:56:07;;;;;;;16.55;8.32;;;537.90;2406.40;;;;;;4942330;29;20047;-73
2023/09/08 05:58:33;;;;;;;14.63;7.35;;;538.00;2406.40;;;;;;4952467;29;20031;-74
2023/09/08 06:01:01;;;;;;;20.35;8.05;;;538.00;2406.40;;;;;;4950011;29;20034;-74
2023/09/08 06:03:26;;;;;;;11.65;6.78;;;538.30;2406.40;;;;;;4941282;29;20031;-75
2023/09/08 06:05:52;;;;;;;12.45;6.80;;;538.40;2406.40;;;;;;4952436;29;20053;-74
2023/09/08 06:08:18;;;;;;;9.73;5.75;;;538.50;2406.40;;;;;;4947403;29;20115;-74
2023/09/08 06:10:43;;;;;;;9.63;6.15;;;538.40;2406.40;;;;;;4948483;29;20035;-73
2023/09/08 06:13:10;;;;;;;12.77;6.47;;;538.50;2406.40;;;;;;4950497;29;20495;-75
2023/09/08 06:15:36;;;;;;;9.95;6.00;;;563.20;2432.00;;;;;;4948283;29;20019;-75
2023/09/08 06:18:03;;;;;;;10.38;6.55;;;538.50;2406.40;;;;;;4947576;29;20031;-74
2023/09/08 06:20:28;;;;;;;10.80;6.18;;;563.30;2432.00;;;;;;4946084;29;20024;-75
2023/09/08 06:22:54;;;;;;;13.77;6.43;;;563.30;2432.00;;;;;;4934130;29;20034;-73
2023/09/08 06:25:20;;;;;;;10.20;5.57;;;;;;;;;;4950400;28;20058;-73
2023/09/08 06:27:46;;;;;;;9.55;5.20;;;563.70;2432.00;;;;;;4944991;29;20447;-73
2023/09/08 06:30:16;;;;;;;10.75;5.72;;;563.80;2432.00;;;;;;4945367;29;20031;-74
2023/09/08 06:32:42;;;;;;;9.38;5.28;;;563.90;2432.00;;;;;;4945959;29;20487;-75
2023/09/08 06:35:08;;;;;;;8.77;5.03;;;564.10;2432.00;;;;;;4949239;29;20358;-74
2023/09/08 06:37:38;;;;;;;12.73;5.68;;;588.80;2432.00;;;;;;4943398;29;20047;-75
2023/09/08 06:40:05;;;;;;;10.43;5.50;;;589.00;2432.00;;;;;;4947656;29;20107;-74
2023/09/08 06:42:30;;;;;;;16.55;5.82;;;589.20;2432.00;;;;;;4943522;29;20016;-74
2023/09/08 06:44:56;;;;;;;9.02;4.90;;;589.40;2432.00;;;;;;4947541;29;20099;-74
2023/09/08 06:47:22;;;;;;;10.80;4.97;;;589.60;2432.00;;;;;;4940610;29;20047;-74
2023/09/08 06:49:47;;;;;;;8.57;5.47;;;589.70;2432.00;;;;;;4927644;29;20028;-73
2023/09/08 06:52:14;;;;;;;10.82;5.30;;;;;;;;;;4944232;29;20028;-73
2023/09/08 06:54:39;;;;;;;10.20;5.32;;;614.80;2380.80;;;;;;4946353;29;20472;-74
2023/09/08 06:57:05;;;;;;;12.63;5.45;;;615.00;2355.20;;;;;;4943674;29;20039;-73
2023/09/08 06:59:30;;;;;;;10.45;5.28;;;615.10;2278.40;;;;;;4950390;29;20035;-73
2023/09/08 07:01:56;;;;;;;8.95;4.53;;;615.20;2227.20;;;;;;4948629;29;20027;-73
2023/09/08 07:04:22;;;;;;;9.82;4.85;;;640.10;2176.00;;;;;;4943187;29;20028;-73
2023/09/08 07:06:49;;;;;;;7.68;5.00;;;640.20;2201.60;;;;;;4943084;29;20059;-70
2023/09/08 07:09:15;;;;;;;8.75;4.93;;;640.40;2124.80;;;;;;4948542;29;20084;-72
2023/09/08 07:11:41;;;;;;;9.85;5.22;;;640.40;2099.20;;;;;;4929322;29;20618;-73
2023/09/08 07:14:06;;;;;;;10.30;5.45;;;640.50;2073.60;;;;;;4941334;29;20066;-75
2023/09/08 07:16:32;;;;;;;8.13;4.65;;;640.70;2073.60;;;;;;4945848;28;20542;-74
2023/09/08 07:19:00;;;;;;;20.70;5.03;;;640.90;2048.00;;;;;;4936992;29;20040;-71
2023/09/08 07:21:26;;;;;;;9.20;5.00;;;665.70;2124.80;;;;;;4948884;29;20024;-73
2023/09/08 07:23:53;;;;;;;11.18;5.65;;;666.00;2073.60;;;;;;4950902;29;20123;-74
2023/09/08 07:26:19;;;;;;;9.60;4.80;;;666.20;2048.00;;;;;;4943140;29;20547;-75
2023/09/08 07:28:45;;;;;;;9.85;4.47;;;666.50;2022.40;;;;;;4935949;29;20102;-76
2023/09/08 07:31:11;;;;;;;8.43;4.50;;;666.50;1971.20;;;;;;4949573;29;20036;-75
2023/09/08 07:33:37;;;;;;;10.82;5.07;;;691.30;1996.80;;;;;;4945942;29;20045;-74
2023/09/08 07:36:05;;;;;;;7.03;4.78;;;691.40;1894.40;;;;;;4928717;29;20558;-75
2023/09/08 07:38:31;;;;;;;10.00;4.47;;;691.60;1868.80;;;;;;4929426;29;20444;-74
2023/09/08 07:40:59;;;;;;;8.90;4.65;;;691.60;1843.20;;;;;;4951369;29;20119;-74
2023/09/08 07:43:25;;;;;;;18.38;5.78;;;691.70;1817.60;;;;;;4947324;29;20163;-74
2023/09/08 07:45:51;;;;;;;9.30;5.30;;;691.80;1792.00;;;;;;4944670;29;20534;-75
2023/09/08 07:48:17;;;;;;;12.65;4.30;;;716.80;1843.20;;;;;;4943196;29;20099;-75
2023/09/08 07:50:42;;;;;;;8.88;4.80;;;717.10;1766.40;;;;;;4928605;29;20035;-74
2023/09/08 07:53:08;;;;;;;8.65;4.50;;;717.20;1766.40;;;;;;4939923;29;20081;-76
2023/09/08 07:55:34;;;;;;;11.10;6.03;;;717.30;1715.20;;;;;;4940198;29;20059;-75
2023/09/08 07:58:03;;;;;;;6.70;4.57;;;717.50;1689.60;;;;;;4943387;29;20495;-76
2023/09/08 08:00:29;;;;;;;6.13;4.07;;;717.70;1689.60;;;;;;4940572;29;20485;-75
2023/09/08 08:02:56;;;;;;;13.48;5.68;;;717.60;1638.40;;;;;;4946314;29;20038;-75
2023/09/08 08:05:23;;;;;;;13.55;6.00;;;717.50;1612.80;;;;;;4947214;29;20075;-74
2023/09/08 08:07:48;;;;;;;9.52;4.85;;;742.50;1689.60;;;;;;4935717;29;20035;-75
2023/09/08 08:10:14;;;;;;;14.90;5.05;;;742.50;1638.40;;;;;;4949996;29;20539;-75
2023/09/08 08:12:41;;;;;;;12.68;8.52;;;742.50;1638.40;;;;;;4939631;29;20032;-75
2023/09/08 08:15:09;;;;;;;10.63;4.65;;;742.70;1612.80;;;;;;4948958;29;20051;-74
2023/09/08 08:17:36;;;;;;;9.32;4.78;;;742.80;1638.40;;;;;;4929186;29;20031;-74
2023/09/08 08:20:17;;;;;;;7.97;4.25;;;742.60;1587.20;;;;;;4942126;29;20027;-74
2023/09/08 08:22:44;;;;;;;9.18;4.57;;;742.80;1612.80;;;;;;4928397;29;20075;-75
2023/09/08 08:25:09;;;;;;;10.32;4.28;;;742.80;1561.60;;;;;;4943632;29;20110;-75
2023/09/08 08:27:35;;;;;;;7.57;4.00;;;743.10;1587.20;;;;;;4929033;29;20386;-75
2023/09/08 08:30:01;;;;;;;11.00;5.07;;;768.00;1587.20;;;;;;4944701;29;20039;-75
2023/09/08 08:32:27;;;;;;;9.23;4.47;;;768.20;1536.00;;;;;;4945935;29;20387;-75
2023/09/08 08:34:53;;;;;;;9.02;4.85;;;768.20;1510.40;;;;;;4946148;29;20031;-75
2023/09/08 08:37:19;;;;;;;8.80;4.25;;;768.20;1510.40;;;;;;4928547;29;20082;-75
2023/09/08 08:39:44;;;;;;;7.78;4.30;;;768.30;1484.80;;;;;;4946569;29;20506;-75
2023/09/08 08:42:10;;;;;;;8.32;4.32;;;768.90;1484.80;;;;;;4946497;29;20024;-75
2023/09/08 08:44:38;;;;;;;11.65;4.15;;;768.90;1484.80;;;;;;4944259;29;20035;-75
2023/09/08 08:47:07;;;;;;;8.80;4.45;;;768.90;1433.60;;;;;;4952357;28;20019;-74
2023/09/08 08:49:33;;;;;;;10.30;4.15;;;768.50;1433.60;;;;;;4953182;29;20055;-76
2023/09/08 08:52:03;;;;;;;7.60;4.32;;;768.60;1433.60;;;;;;4952851;29;20024;-76
2023/09/08 08:54:29;;;;;;;10.90;4.30;;;768.60;1459.20;;;;;;4946781;29;20027;-76
2023/09/08 08:56:56;;;;;;;9.27;4.85;;;768.70;1459.20;;;;;;4942311;29;20031;-76
2023/09/08 08:59:22;;;;;;;8.90;4.45;;;793.60;1433.60;;;;;;4933835;29;20475;-75
2023/09/08 09:01:49;;;;;;;7.05;4.38;;;768.90;1408.00;;;;;;4944664;29;20020;-76
2023/09/08 09:04:16;;;;;;;13.68;4.20;;;793.70;1459.20;;;;;;4947342;29;20027;-76
2023/09/08 09:06:42;;;;;;;7.60;4.47;;;793.70;1459.20;;;;;;4933120;29;20023;-75
2023/09/08 09:09:08;;;;;;;9.77;4.07;;;793.70;1484.80;;;;;;4949712;29;20034;-76
2023/09/08 09:11:34;;;;;;;7.25;4.00;;;793.70;1433.60;;;;;;4944850;29;20052;-74
2023/09/08 09:14:00;;;;;;;7.03;4.32;;;793.80;1433.60;;;;;;4950892;29;20054;-74
2023/09/08 09:16:26;;;;;;;7.10;3.80;;;794.00;1433.60;;;;;;4946611;29;20028;-74
2023/09/08 09:18:59;;;;;;;8.23;4.15;;;794.20;1408.00;;;;;;4948285;29;20487;-72
2023/09/08 09:21:44;;;;;;;6.30;4.03;;;794.20;1433.60;;;;;;4949532;29;20032;-73
2023/09/08 09:24:17;;;;;;;6.67;4.43;;;794.50;1382.40;;;;;;4954956;29;20492;-73
2023/09/08 09:26:43;;;;;;;6.82;3.45;;;794.50;1356.80;;;;;;4953827;29;20031;-75
2023/09/08 09:29:13;;;;;;;6.82;3.83;;;819.30;1382.40;;;;;;4954580;29;20031;-74
2023/09/08 09:31:56;;;;;;;6.57;3.70;;;794.50;1356.80;;;;;;4950266;29;20106;-73
2023/09/08 09:34:23;;;;;;;11.35;3.67;;;794.50;1356.80;;;;;;4935035;29;20055;-75
2023/09/08 09:36:49;;;;;;;6.65;3.90;;;794.30;1356.80;;;;;;4949001;29;20074;-74
2023/09/08 09:39:26;;;;;;;11.02;4.28;;;794.20;1356.80;;;;;;4952695;29;20388;-74
2023/09/08 09:41:57;;;;;;;13.82;4.88;;;794.30;1331.20;;;;;;4948111;29;20055;-75
2023/09/08 09:44:23;;;;;;;11.35;4.53;;;819.30;1356.80;;;;;;4944749;29;20382;-74
2023/09/08 09:46:52;;;;;;;9.73;4.40;;;819.80;1356.80;;;;;;4934628;29;20081;-75
2023/09/08 09:49:18;;;;;;;7.05;4.25;;;819.50;1331.20;;;;;;4946728;29;20101;-75
2023/09/08 09:51:47;;;;;;;7.45;3.97;;;819.40;1331.20;;;;;;4953186;29;20030;-75
2023/09/08 09:54:13;;;;;;;17.83;4.45;;;819.60;1305.60;;;;;;4953420;29;20078;-74
2023/09/08 09:56:39;;;;;;;12.30;4.18;;;819.70;1356.80;;;;;;4955168;29;20027;-73
2023/09/08 09:59:08;;;;;;;11.13;4.25;;;819.50;1356.80;;;;;;4948172;28;20031;-72
2023/09/08 10:01:36;;;;;;;10.35;5.43;;;819.60;1356.80;;;;;;4947718;29;20019;-73
2023/09/08 10:04:03;;;;;;;5.35;3.90;;;819.60;1331.20;;;;;;4933254;29;20186;-72
2023/09/08 10:06:32;;;;;;;9.73;4.25;;;819.50;1331.20;;;;;;4926356;29;20020;-72
2023/09/08 10:09:00;;;;;;;9.30;4.70;;;819.90;1331.20;;;;;;4947373;29;20035;-72
2023/09/08 10:11:32;;;;;;;10.18;4.75;;;819.80;1331.20;;;;;;4949743;29;20028;-74
2023/09/08 10:13:59;;;;;;;7.07;4.30;;;820.00;1331.20;;;;;;4952721;29;20102;-72
2023/09/08 10:16:30;;;;;;;8.00;3.78;;;844.80;1305.60;;;;;;4948876;29;20024;-72
2023/09/08 10:18:59;;;;;;;10.15;4.07;;;820.10;1280.00;;;;;;4944062;29;20028;-74
2023/09/08 10:21:27;;;;;;;11.32;4.38;;;845.00;1305.60;;;;;;4935096;29;20388;-74
2023/09/08 10:24:13;;;;;;;7.75;4.30;;;845.10;1305.60;;;;;;4954058;29;20114;-74
2023/09/08 10:26:43;;;;;;;6.68;3.78;;;845.20;1280.00;;;;;;4952143;29;20038;-72
2023/09/08 10:29:09;;;;;;;7.72;3.80;;;870.70;1228.80;;;;;;4951040;29;20027;-73
2023/09/08 10:31:36;;;;;;;6.82;4.10;;;845.70;1228.80;;;;;;4948440;29;20024;-74
2023/09/08 10:34:03;;;;;;;7.53;3.78;;;870.40;1254.40;;;;;;4952746;29;20106;-74
2023/09/08 10:36:29;;;;;;;8.60;4.20;;;870.70;1203.20;;;;;;4946356;29;20031;-74
2023/09/08 10:39:27;;;;;;;6.80;4.55;;;870.80;1254.40;;;;;;4943401;29;20040;-74
2023/09/08 10:42:19;;;;;;;5.72;3.88;;;870.40;1228.80;;;;;;4948862;29;20102;-74
2023/09/08 10:44:49;;;;;;;10.27;4.10;;;845.40;1228.80;;;;;;4946536;29;20050;-73
2023/09/08 10:47:36;;;;;;;8.20;4.45;;;870.60;1228.80;;;;;;4939913;29;20028;-74
2023/09/08 10:50:03;;;;;;;9.50;4.50;;;871.00;1177.60;;;;;;4938503;29;20082;-73
2023/09/08 10:52:29;;;;;;;9.85;4.70;;;871.30;1203.20;;;;;;4942707;29;20032;-73
2023/09/08 10:54:55;;;;;;;8.82;4.72;;;870.90;1228.80;;;;;;4938749;29;20032;-73
2023/09/08 10:57:23;;;;;;;6.57;4.20;;;896.80;1177.60;;;;;;4947185;29;20023;-74
2023/09/08 10:59:56;;;;;;;6.90;3.45;;;896.10;1177.60;;;;;;4953133;29;20039;-72
2023/09/08 11:02:42;;;;;;;5.55;3.75;;;871.30;1152.00;;;;;;4946488;29;20022;-73
2023/09/08 11:05:09;;;;;;;;;;;896.50;1152.00;;;;;;4949421;29;20062;-73
2023/09/08 11:07:38;;;;;;;9.38;4.32;;;896.90;1126.40;;;;;;4946517;29;19910;-72
2023/09/08 11:10:05;;;;;;;14.48;4.63;;;921.70;1152.00;;;;;;4953032;28;20027;-73
2023/09/08 11:12:31;;;;;;;8.82;3.80;;;896.50;1152.00;;;;;;4948434;29;20035;-73
2023/09/08 11:15:00;;;;;;;9.30;4.18;;;896.70;1152.00;;;;;;4944604;29;20394;-72
2023/09/08 11:17:29;;;;;;;5.03;3.65;;;896.80;1177.60;;;;;;4947611;29;20087;-71
2023/09/08 11:19:55;;;;;;;7.95;4.22;;;896.20;1152.00;;;;;;4948248;29;20067;-72
2023/09/08 11:22:24;;;;;;;6.05;3.35;;;921.70;1152.00;;;;;;4954424;29;20051;-71
2023/09/08 11:24:56;;;;;;;7.57;4.20;;;921.70;1152.00;;;;;;4928173;29;20047;-73
2023/09/08 11:27:23;;;;;;;6.60;3.65;;;921.60;1126.40;;;;;;4946260;29;20448;-75
2023/09/08 11:29:49;;;;;;;7.18;4.13;;;896.90;1126.40;;;;;;4944426;29;20492;-73
2023/09/08 11:32:15;;;;;;;5.53;4.28;;;896.20;1100.80;;;;;;4948292;29;20028;-71
2023/09/08 11:34:41;;;;;;;8.50;4.20;;;896.10;1126.40;;;;;;4928639;29;20046;-74
2023/09/08 11:37:16;;;;;;;7.25;3.95;;;871.20;1152.00;;;;;;4946186;29;20027;-72
2023/09/08 11:39:42;;;;;;;5.70;3.50;;;871.30;1126.40;;;;;;4945381;29;20472;-71
2023/09/08 11:42:14;;;;;;;8.90;4.22;;;870.60;1177.60;;;;;;4950350;29;20113;-71
2023/09/08 11:44:40;;;;;;;8.35;3.65;;;871.00;1152.00;;;;;;4950602;29;20028;-71
2023/09/08 11:47:07;;;;;;;6.00;3.75;;;845.50;1203.20;;;;;;4944889;29;20016;-77
2023/09/08 11:49:37;;;;;;;6.07;3.90;;;845.60;1177.60;;;;;;4950252;29;20032;-71
2023/09/08 11:52:03;;;;;;;8.98;4.35;;;870.70;1177.60;;;;;;4949437;29;20024;-71
2023/09/08 11:54:39;;;;;;;8.13;4.18;;;870.50;1203.20;;;;;;4946251;29;20059;-72
2023/09/08 11:57:07;;;;;;;6.38;3.97;;;870.90;1177.60;;;;;;4947902;29;20023;-71
2023/09/08 11:59:34;;;;;;;7.82;4.15;;;870.90;1100.80;;;;;;4925870;29;20071;-71
2023/09/08 12:02:00;;;;;;;10.30;3.85;;;870.70;1177.60;;;;;;4947813;29;20016;-72
2023/09/08 12:04:27;;;;;;;7.75;4.45;;;870.90;1126.40;;;;;;4948044;29;20035;-72
2023/09/08 12:06:55;;;;;;;9.35;4.68;;;871.10;1152.00;;;;;;4947813;29;20050;-71
2023/09/08 12:09:21;;;;;;;9.65;3.88;;;870.60;1152.00;;;;;;4933912;29;20465;-70
2023/09/08 12:11:47;;;;;;;7.10;3.90;;;845.40;1177.60;;;;;;4946767;29;20126;-73